createdAt,value
2022-07-26T00:00:32.413Z,59.62
2022-07-26T00:01:35.948Z,59.62
2022-07-26T00:02:21.302Z,59.67
2022-07-26T00:03:21.222Z,59.7
2022-07-26T00:04:21.226Z,59.7
2022-07-26T00:05:21.221Z,59.86
2022-07-26T00:06:21.242Z,59.72
2022-07-26T00:07:21.239Z,59.72
2022-07-26T00:08:21.226Z,60.23
2022-07-26T00:09:21.242Z,60.23
2022-07-26T00:10:21.220Z,60.83
2022-07-26T00:11:21.227Z,61.17
2022-07-26T00:12:21.241Z,61.44
2022-07-26T00:13:21.229Z,61.44
2022-07-26T00:14:21.227Z,62.08
2022-07-26T00:15:21.243Z,62.41
2022-07-26T00:16:21.283Z,62.41
2022-07-26T00:17:21.250Z,62.37
2022-07-26T00:18:21.226Z,62.72
2022-07-26T00:19:21.240Z,62.99
2022-07-26T00:20:21.227Z,63.05
2022-07-26T00:21:21.222Z,63.05
2022-07-26T00:22:21.251Z,63.17
2022-07-26T00:23:21.230Z,63.46
2022-07-26T00:24:21.256Z,63.62
2022-07-26T00:25:21.217Z,63.62
2022-07-26T00:26:21.220Z,64.45
2022-07-26T00:27:54.952Z,64.45
2022-07-26T00:28:28.534Z,64.8
2022-07-26T00:29:28.277Z,64.8
2022-07-26T00:30:21.219Z,65.28
2022-07-26T00:31:21.266Z,65.28
2022-07-26T00:32:22.392Z,65.81
2022-07-26T00:33:21.238Z,65.81
2022-07-26T00:34:21.231Z,65.99
2022-07-26T00:35:21.223Z,66.25
2022-07-26T00:36:29.181Z,66.24
2022-07-26T00:37:21.294Z,66.65
2022-07-26T00:38:21.236Z,66.65
2022-07-26T00:39:21.256Z,67.19
2022-07-26T00:40:28.199Z,67.19
2022-07-26T00:41:21.219Z,67.57
2022-07-26T00:42:21.224Z,68
2022-07-26T00:43:21.232Z,68.21
2022-07-26T00:44:21.223Z,68.43
2022-07-26T00:45:43.909Z,68.43
2022-07-26T00:46:21.430Z,68.72
2022-07-26T00:47:21.233Z,68.72
2022-07-26T00:48:36.231Z,69.26
2022-07-26T00:49:21.301Z,69.45
2022-07-26T00:50:21.221Z,69.45
2022-07-26T00:51:21.224Z,69.75
2022-07-26T00:52:21.228Z,69.95
2022-07-26T00:53:21.243Z,69.95
2022-07-26T00:54:21.236Z,70.17
2022-07-26T00:55:21.225Z,70.3
2022-07-26T00:56:21.358Z,70.39
2022-07-26T00:57:21.231Z,70.72
2022-07-26T00:58:21.267Z,76.92
2022-07-26T00:59:24.977Z,76.92
2022-07-26T01:00:32.250Z,76.92
2022-07-26T01:01:21.334Z,70.68
2022-07-26T01:02:21.268Z,70.99
2022-07-26T01:03:21.251Z,71.18
2022-07-26T01:04:21.221Z,71.59
2022-07-26T01:05:36.332Z,71.59
2022-07-26T01:06:23.983Z,72.01
2022-07-26T01:07:21.225Z,72.01
2022-07-26T01:08:21.235Z,72.32
2022-07-26T01:09:21.241Z,72.29
2022-07-26T01:10:21.225Z,72.46
2022-07-26T01:11:21.219Z,72.61
2022-07-26T01:12:26.280Z,72.73
2022-07-26T01:13:21.250Z,72.87
2022-07-26T01:14:34.612Z,72.9
2022-07-26T01:15:21.236Z,72.91
2022-07-26T01:16:27.719Z,72.91
2022-07-26T01:17:21.222Z,73.01
2022-07-26T01:18:21.258Z,73.01
2022-07-26T01:19:21.234Z,73.01
2022-07-26T01:20:21.231Z,72.86
2022-07-26T01:21:21.228Z,72.71
2022-07-26T01:22:29.369Z,72.47
2022-07-26T01:23:21.254Z,78.06
2022-07-26T01:24:21.256Z,78.18
2022-07-26T01:25:21.234Z,78.06
2022-07-26T01:26:21.242Z,78.06
2022-07-26T01:27:21.269Z,78.06
2022-07-26T01:28:21.261Z,77.57
2022-07-26T01:29:21.240Z,77.48
2022-07-26T01:30:25.121Z,77.52
2022-07-26T01:31:45.835Z,77.52
2022-07-26T01:32:21.234Z,76.84
2022-07-26T01:33:21.257Z,77.37
2022-07-26T01:34:21.243Z,77.37
2022-07-26T01:35:23.200Z,77.37
2022-07-26T01:36:21.236Z,77.61
2022-07-26T01:37:21.244Z,77.7
2022-07-26T01:38:21.258Z,77.7
2022-07-26T01:39:21.257Z,77.67
2022-07-26T01:40:21.270Z,77.89
2022-07-26T01:41:22.773Z,78.1
2022-07-26T01:42:21.228Z,78.21
2022-07-26T01:43:21.325Z,78.26
2022-07-26T01:44:21.223Z,78.36
2022-07-26T01:45:21.225Z,78.33
2022-07-26T01:46:21.290Z,78.35
2022-07-26T01:47:21.232Z,78.35
2022-07-26T01:48:21.230Z,78.17
2022-07-26T01:49:21.318Z,78.17
2022-07-26T01:50:21.233Z,78.46
2022-07-26T01:51:21.231Z,78.41
2022-07-26T01:52:21.245Z,78.28
2022-07-26T01:53:21.261Z,78.21
2022-07-26T01:54:22.458Z,78.35
2022-07-26T01:55:24.814Z,78.29
2022-07-26T01:56:21.239Z,78.29
2022-07-26T01:57:21.224Z,78.29
2022-07-26T01:58:21.244Z,78.43
2022-07-26T01:59:21.223Z,78.48
2022-07-26T02:00:21.222Z,78.43
2022-07-26T02:01:38.029Z,78.23
2022-07-26T02:02:21.345Z,78.3
2022-07-26T02:03:34.428Z,78.39
2022-07-26T02:04:21.226Z,78.49
2022-07-26T02:05:21.228Z,78.49
2022-07-26T02:06:21.235Z,78.48
2022-07-26T02:07:21.228Z,78.48
2022-07-26T02:08:21.296Z,78.51
2022-07-26T02:09:21.257Z,78.48
2022-07-26T02:10:21.225Z,78.55
2022-07-26T02:11:21.225Z,78.55
2022-07-26T02:12:21.225Z,78.55
2022-07-26T02:13:21.233Z,78.59
2022-07-26T02:14:31.992Z,78.5
2022-07-26T02:15:21.226Z,78.5
2022-07-26T02:16:21.299Z,78.37
2022-07-26T02:17:21.222Z,78.16
2022-07-26T02:18:21.230Z,78.16
2022-07-26T02:19:21.232Z,78.22
2022-07-26T02:20:21.255Z,78.22
2022-07-26T02:21:21.227Z,78.23
2022-07-26T02:22:30.834Z,78.32
2022-07-26T02:23:21.232Z,77.66
2022-07-26T02:24:21.249Z,77.73
2022-07-26T02:25:21.227Z,77.81
2022-07-26T02:26:38.140Z,77.61
2022-07-26T02:27:21.237Z,77.82
2022-07-26T02:28:21.233Z,78.02
2022-07-26T02:29:21.234Z,78.06
2022-07-26T02:30:21.226Z,78.06
2022-07-26T02:31:21.351Z,77.97
2022-07-26T02:32:21.232Z,78.02
2022-07-26T02:33:21.229Z,78.02
2022-07-26T02:34:21.242Z,78.33
2022-07-26T02:35:21.224Z,78.5
2022-07-26T02:36:21.229Z,78.5
2022-07-26T02:37:43.700Z,78.61
2022-07-26T02:38:21.225Z,78.61
2022-07-26T02:39:21.248Z,78.61
2022-07-26T02:40:21.283Z,78.69
2022-07-26T02:41:21.247Z,78.78
2022-07-26T02:42:28.768Z,78.79
2022-07-26T02:43:21.225Z,78.83
2022-07-26T02:44:21.252Z,78.97
2022-07-26T02:46:01.922Z,78.95
2022-07-26T02:46:21.268Z,78.95
2022-07-26T02:47:21.225Z,78.95
2022-07-26T02:48:21.226Z,78.86
2022-07-26T02:49:31.082Z,78.86
2022-07-26T02:50:21.233Z,78.81
2022-07-26T02:51:28.736Z,78.85
2022-07-26T02:52:21.250Z,78.88
2022-07-26T02:53:21.238Z,78.84
2022-07-26T02:54:21.257Z,78.87
2022-07-26T02:55:21.253Z,78.87
2022-07-26T02:56:21.227Z,78.88
2022-07-26T02:57:21.223Z,78.66
2022-07-26T02:58:27.009Z,78.66
2022-07-26T02:59:21.224Z,78.79
2022-07-26T03:00:21.231Z,78.83
2022-07-26T03:01:21.259Z,78.54
2022-07-26T03:02:21.344Z,78.43
2022-07-26T03:03:21.252Z,78.52
2022-07-26T03:04:21.229Z,78.64
2022-07-26T03:05:31.999Z,78.6
2022-07-26T03:06:21.227Z,78.56
2022-07-26T03:07:21.226Z,78.56
2022-07-26T03:08:21.236Z,77.9
2022-07-26T03:09:21.250Z,77.9
2022-07-26T03:10:21.242Z,78.29
2022-07-26T03:11:21.224Z,78.46
2022-07-26T03:12:21.235Z,78.43
2022-07-26T03:13:21.238Z,78.42
2022-07-26T03:14:21.223Z,78.21
2022-07-26T03:15:21.251Z,78.2
2022-07-26T03:16:24.791Z,78.14
2022-07-26T03:17:21.226Z,78.28
2022-07-26T03:18:21.244Z,78.48
2022-07-26T03:19:54.721Z,78.51
2022-07-26T03:20:21.234Z,78.51
2022-07-26T03:21:21.240Z,78.21
2022-07-26T03:22:21.224Z,77.84
2022-07-26T03:23:25.832Z,78.06
2022-07-26T03:24:21.235Z,78.07
2022-07-26T03:25:21.226Z,77.46
2022-07-26T03:26:21.232Z,77.46
2022-07-26T03:27:21.219Z,78.2
2022-07-26T03:28:21.255Z,78.07
2022-07-26T03:29:21.236Z,78.07
2022-07-26T03:30:24.565Z,77.95
2022-07-26T03:31:21.312Z,77.95
2022-07-26T03:32:23.167Z,78.31
2022-07-26T03:33:21.219Z,78.24
2022-07-26T03:34:21.220Z,78.28
2022-07-26T03:35:21.226Z,78.32
2022-07-26T03:36:21.228Z,78.32
2022-07-26T03:37:21.226Z,76.87
2022-07-26T03:38:21.229Z,76.64
2022-07-26T03:39:21.237Z,76.46
2022-07-26T03:40:21.223Z,76.46
2022-07-26T03:41:21.239Z,75.41
2022-07-26T03:42:21.219Z,75.41
2022-07-26T03:43:22.946Z,75.24
2022-07-26T03:44:21.232Z,75.7
2022-07-26T03:45:21.229Z,75.39
2022-07-26T03:46:21.305Z,75.33
2022-07-26T03:47:21.227Z,75.33
2022-07-26T03:48:21.228Z,75.33
2022-07-26T03:49:21.263Z,74.74
2022-07-26T03:50:21.227Z,74.49
2022-07-26T03:51:21.247Z,74.49
2022-07-26T03:52:21.242Z,74.49
2022-07-26T03:53:21.221Z,73.64
2022-07-26T03:54:21.242Z,73.64
2022-07-26T03:55:21.220Z,72.71
2022-07-26T03:56:45.622Z,72.82
2022-07-26T03:58:05.202Z,72.56
2022-07-26T03:58:21.221Z,72.56
2022-07-26T03:59:21.218Z,72.56
2022-07-26T04:00:21.225Z,72.56
2022-07-26T04:01:21.303Z,72.56
2022-07-26T04:02:47.761Z,72.25
2022-07-26T04:03:21.226Z,72.25
2022-07-26T04:04:25.179Z,71.61
2022-07-26T04:05:23.558Z,71.61
2022-07-26T04:06:34.823Z,71.49
2022-07-26T04:07:21.224Z,71.26
2022-07-26T04:08:21.223Z,71.26
2022-07-26T04:09:21.243Z,71.12
2022-07-26T04:10:21.235Z,71
2022-07-26T04:11:21.239Z,70.97
2022-07-26T04:12:27.995Z,70.86
2022-07-26T04:13:23.995Z,70.86
2022-07-26T04:14:21.215Z,71.07
2022-07-26T04:15:21.245Z,70.93
2022-07-26T04:16:21.301Z,71.1
2022-07-26T04:17:43.927Z,71.1
2022-07-26T04:18:47.994Z,71.03
2022-07-26T04:19:41.816Z,71.03
2022-07-26T04:20:37.151Z,71.03
2022-07-26T04:21:21.586Z,70.85
2022-07-26T04:22:21.220Z,70.85
2022-07-26T04:23:21.220Z,70.61
2022-07-26T04:24:21.243Z,70.61
2022-07-26T04:25:21.223Z,70.61
2022-07-26T04:26:21.239Z,70.28
2022-07-26T04:27:33.843Z,70.28
2022-07-26T04:28:21.227Z,70.28
2022-07-26T04:29:21.223Z,69.24
2022-07-26T04:30:21.226Z,69.29
2022-07-26T04:31:21.317Z,69.53
2022-07-26T04:32:21.231Z,69.63
2022-07-26T04:33:21.225Z,69.63
2022-07-26T04:34:21.220Z,68.87
2022-07-26T04:35:21.221Z,69.28
2022-07-26T04:36:21.264Z,68.56
2022-07-26T04:37:21.221Z,68.64
2022-07-26T04:38:21.228Z,68.64
2022-07-26T04:39:21.246Z,68.64
2022-07-26T04:40:21.665Z,68.65
2022-07-26T04:41:21.240Z,68.45
2022-07-26T04:42:21.228Z,68.53
2022-07-26T04:43:21.219Z,68.43
2022-07-26T04:44:21.228Z,67.81
2022-07-26T04:45:21.224Z,67.55
2022-07-26T04:46:35.079Z,67.78
2022-07-26T04:47:21.229Z,67.84
2022-07-26T04:48:21.334Z,67.46
2022-07-26T04:49:28.933Z,67.63
2022-07-26T04:50:21.221Z,67.44
2022-07-26T04:51:21.239Z,67.64
2022-07-26T04:52:21.226Z,67.67
2022-07-26T04:53:21.221Z,67.7
2022-07-26T04:54:21.233Z,67.74
2022-07-26T04:55:21.226Z,67.86
2022-07-26T04:56:21.227Z,67.86
2022-07-26T04:57:30.264Z,67.86
2022-07-26T04:58:44.776Z,67.88
2022-07-26T04:59:21.963Z,69.03
2022-07-26T05:00:22.784Z,69.03
2022-07-26T05:01:21.291Z,69.03
2022-07-26T05:02:21.338Z,69.03
2022-07-26T05:03:21.233Z,68.6
2022-07-26T05:04:39.660Z,68.63
2022-07-26T05:05:21.224Z,68.76
2022-07-26T05:06:21.237Z,68.66
2022-07-26T05:07:21.225Z,68.66
2022-07-26T05:08:25.683Z,68.66
2022-07-26T05:09:21.251Z,68.49
2022-07-26T05:10:21.233Z,68.41
2022-07-26T05:11:21.233Z,68.42
2022-07-26T05:12:21.223Z,67.98
2022-07-26T05:13:31.152Z,67.98
2022-07-26T05:14:21.216Z,68.04
2022-07-26T05:15:21.222Z,68.5
2022-07-26T05:16:21.242Z,68.4
2022-07-26T05:17:21.320Z,68.31
2022-07-26T05:18:49.087Z,67.93
2022-07-26T05:19:49.303Z,67.62
2022-07-26T05:20:21.222Z,67.77
2022-07-26T05:21:21.247Z,67.77
2022-07-26T05:22:21.221Z,67.77
2022-07-26T05:23:21.226Z,67.77
2022-07-26T05:24:24.676Z,67.84
2022-07-26T05:25:21.234Z,67.87
2022-07-26T05:26:59.986Z,68.24
2022-07-26T05:27:21.226Z,68.24
2022-07-26T05:28:33.747Z,68.14
2022-07-26T05:29:21.226Z,68.14
2022-07-26T05:30:21.230Z,67.41
2022-07-26T05:31:21.295Z,67.41
2022-07-26T05:32:21.230Z,67.13
2022-07-26T05:33:21.411Z,67.57
2022-07-26T05:34:54.782Z,67.57
2022-07-26T05:35:21.239Z,67.11
2022-07-26T05:36:21.239Z,67.43
2022-07-26T05:37:21.224Z,67.43
2022-07-26T05:38:21.224Z,66.98
2022-07-26T05:39:21.229Z,66.98
2022-07-26T05:40:21.244Z,66.98
2022-07-26T05:41:21.237Z,66.98
2022-07-26T05:42:21.229Z,67.4
2022-07-26T05:43:21.224Z,67.43
2022-07-26T05:44:21.240Z,67.69
2022-07-26T05:45:38.397Z,67.98
2022-07-26T05:46:21.304Z,68.09
2022-07-26T05:47:21.234Z,67.05
2022-07-26T05:48:21.225Z,67.39
2022-07-26T05:49:21.225Z,67.64
2022-07-26T05:50:21.276Z,67.64
2022-07-26T05:51:21.232Z,67.94
2022-07-26T05:52:21.281Z,68.16
2022-07-26T05:53:21.230Z,67.6
2022-07-26T05:54:22.946Z,67.6
2022-07-26T05:55:21.257Z,67.52
2022-07-26T05:56:21.234Z,67.45
2022-07-26T05:57:36.800Z,67.49
2022-07-26T05:58:21.224Z,67.49
2022-07-26T05:59:21.229Z,67.49
2022-07-26T06:00:26.800Z,67.77
2022-07-26T06:01:21.252Z,67.99
2022-07-26T06:02:21.343Z,67.96
2022-07-26T06:03:47.859Z,67.84
2022-07-26T06:04:21.332Z,68.17
2022-07-26T06:05:21.224Z,67.93
2022-07-26T06:06:21.234Z,67.66
2022-07-26T06:07:21.240Z,67.37
2022-07-26T06:08:21.243Z,67.66
2022-07-26T06:09:21.266Z,68.02
2022-07-26T06:10:21.249Z,68.02
2022-07-26T06:11:21.249Z,67.01
2022-07-26T06:12:21.226Z,67.83
2022-07-26T06:13:21.233Z,67.46
2022-07-26T06:15:01.007Z,67.4
2022-07-26T06:15:43.716Z,67.4
2022-07-26T06:16:21.252Z,67.47
2022-07-26T06:18:03.859Z,67.47
2022-07-26T06:18:21.228Z,67.47
2022-07-26T06:19:21.226Z,67.71
2022-07-26T06:20:43.142Z,67.83
2022-07-26T06:21:21.247Z,67.83
2022-07-26T06:22:48.405Z,67.35
2022-07-26T06:23:34.352Z,67.35
2022-07-26T06:24:21.228Z,67.35
2022-07-26T06:25:21.239Z,67.63
2022-07-26T06:26:21.270Z,67.65
2022-07-26T06:27:21.249Z,67.65
2022-07-26T06:28:21.258Z,68.04
2022-07-26T06:29:21.237Z,68.04
2022-07-26T06:30:21.253Z,68.15
2022-07-26T06:31:21.308Z,68.19
2022-07-26T06:32:21.240Z,67.89
2022-07-26T06:33:21.235Z,68.23
2022-07-26T06:34:21.238Z,68.13
2022-07-26T06:35:21.226Z,68.39
2022-07-26T06:37:18.653Z,67.98
2022-07-26T06:37:21.112Z,67.98
2022-07-26T06:38:21.226Z,67.39
2022-07-26T06:39:32.722Z,67.42
2022-07-26T06:40:21.235Z,67.42
2022-07-26T06:41:21.222Z,67.42
2022-07-26T06:42:21.252Z,67.35
2022-07-26T06:43:21.232Z,67.35
2022-07-26T06:44:21.281Z,67.84
2022-07-26T06:45:21.237Z,67.45
2022-07-26T06:46:21.631Z,67.45
2022-07-26T06:47:21.243Z,67.64
2022-07-26T06:48:21.237Z,67.64
2022-07-26T06:49:22.857Z,67.98
2022-07-26T06:50:25.539Z,67.98
2022-07-26T06:51:21.221Z,67.54
2022-07-26T06:52:21.238Z,67.71
2022-07-26T06:53:48.215Z,67.71
2022-07-26T06:54:21.233Z,67.67
2022-07-26T06:55:21.240Z,67.57
2022-07-26T06:56:21.232Z,67.77
2022-07-26T06:57:26.488Z,67.77
2022-07-26T06:58:21.229Z,68.33
2022-07-26T06:59:21.225Z,68.74
2022-07-26T07:00:21.227Z,68.63
2022-07-26T07:01:58.660Z,68.26
2022-07-26T07:02:21.230Z,68.03
2022-07-26T07:03:21.237Z,67.8
2022-07-26T07:04:51.625Z,67.8
2022-07-26T07:05:21.309Z,67.8
2022-07-26T07:06:21.235Z,68.04
2022-07-26T07:07:21.224Z,68.04
2022-07-26T07:08:21.236Z,68.52
2022-07-26T07:09:21.223Z,68.25
2022-07-26T07:10:23.751Z,68.16
2022-07-26T07:11:21.211Z,68.16
2022-07-26T07:12:21.214Z,67.81
2022-07-26T07:13:21.238Z,68.28
2022-07-26T07:14:21.229Z,68.45
2022-07-26T07:15:21.216Z,68.45
2022-07-26T07:16:48.939Z,67.68
2022-07-26T07:17:41.231Z,67.68
2022-07-26T07:18:21.195Z,67.96
2022-07-26T07:19:21.224Z,68.16
2022-07-26T07:20:21.248Z,67.91
2022-07-26T07:21:21.245Z,67.67
2022-07-26T07:22:21.863Z,67.67
2022-07-26T07:23:21.246Z,68.3
2022-07-26T07:24:21.218Z,68.3
2022-07-26T07:25:25.750Z,68.19
2022-07-26T07:26:21.246Z,67.39
2022-07-26T07:27:21.239Z,67.39
2022-07-26T07:28:21.229Z,67.73
2022-07-26T07:29:21.224Z,67.32
2022-07-26T07:30:57.447Z,67
2022-07-26T07:31:23.615Z,67
2022-07-26T07:32:28.533Z,66.6
2022-07-26T07:33:22.810Z,66.29
2022-07-26T07:35:02.412Z,66.29
2022-07-26T07:35:21.226Z,66.29
2022-07-26T07:36:21.232Z,65.57
2022-07-26T07:37:21.236Z,65.19
2022-07-26T07:38:22.514Z,65.5
2022-07-26T07:40:01.423Z,65.5
2022-07-26T07:40:21.262Z,66.07
2022-07-26T07:41:21.239Z,65.72
2022-07-26T07:42:21.241Z,65.71
2022-07-26T07:43:21.235Z,65.68
2022-07-26T07:44:21.236Z,65.68
2022-07-26T07:45:21.231Z,65.68
2022-07-26T07:46:21.294Z,65.68
2022-07-26T07:47:21.233Z,65.68
2022-07-26T07:48:21.238Z,65.19
2022-07-26T07:49:56.116Z,64.51
2022-07-26T07:50:21.350Z,64.51
2022-07-26T07:51:21.229Z,64.25
2022-07-26T07:52:21.271Z,64.83
2022-07-26T07:53:21.225Z,65.12
2022-07-26T07:54:22.270Z,64.51
2022-07-26T07:55:36.403Z,64.51
2022-07-26T07:56:21.267Z,64.65
2022-07-26T07:57:21.238Z,64.42
2022-07-26T07:58:21.228Z,64.41
2022-07-26T07:59:22.781Z,64.16
2022-07-26T08:00:27.283Z,64.16
2022-07-26T08:01:21.315Z,64.56
2022-07-26T08:02:21.235Z,63.93
2022-07-26T08:03:21.221Z,63.95
2022-07-26T08:04:21.263Z,63.95
2022-07-26T08:05:21.620Z,64.13
2022-07-26T08:06:21.221Z,64.34
2022-07-26T08:07:21.257Z,64.34
2022-07-26T08:08:22.639Z,62.8
2022-07-26T08:09:21.227Z,63.96
2022-07-26T08:10:21.288Z,64.42
2022-07-26T08:11:22.887Z,64.42
2022-07-26T08:12:21.233Z,64.5
2022-07-26T08:13:21.646Z,64.75
2022-07-26T08:15:36.766Z,64.71
2022-07-26T08:15:39.343Z,64.71
2022-07-26T08:16:34.723Z,64.25
2022-07-26T08:17:21.246Z,64.54
2022-07-26T08:18:22.303Z,64.54
2022-07-26T08:19:50.544Z,63.68
2022-07-26T08:20:22.880Z,63.68
2022-07-26T08:21:21.230Z,63.67
2022-07-26T08:22:24.311Z,64.05
2022-07-26T08:23:21.245Z,64.05
2022-07-26T08:24:21.232Z,62.94
2022-07-26T08:25:21.249Z,62.94
2022-07-26T08:26:21.226Z,62.71
2022-07-26T08:27:21.233Z,62.08
2022-07-26T08:28:45.227Z,62.08
2022-07-26T08:29:31.618Z,62.08
2022-07-26T08:30:21.224Z,63.19
2022-07-26T08:31:34.822Z,63.43
2022-07-26T08:32:21.243Z,62.92
2022-07-26T08:33:21.225Z,63.38
2022-07-26T08:34:21.221Z,63.84
2022-07-26T08:35:21.220Z,63.86
2022-07-26T08:36:21.225Z,63.86
2022-07-26T08:37:21.238Z,63.79
2022-07-26T08:38:21.233Z,64.17
2022-07-26T08:39:44.991Z,63.14
2022-07-26T08:40:36.060Z,62.7
2022-07-26T08:41:21.221Z,62.8
2022-07-26T08:42:22.502Z,62.13
2022-07-26T08:43:21.229Z,61.37
2022-07-26T08:44:21.228Z,60.26
2022-07-26T08:45:21.223Z,59.98
2022-07-26T08:46:26.371Z,60.51
2022-07-26T08:47:37.567Z,60.94
2022-07-26T08:48:21.232Z,61.01
2022-07-26T08:49:21.323Z,61.25
2022-07-26T08:50:21.232Z,61
2022-07-26T08:51:21.223Z,61
2022-07-26T08:52:21.232Z,61.66
2022-07-26T08:53:21.238Z,60.81
2022-07-26T08:54:21.224Z,60.6
2022-07-26T08:55:21.222Z,59.72
2022-07-26T08:56:26.315Z,59.72
2022-07-26T08:57:37.869Z,59.83
2022-07-26T08:58:21.233Z,59.83
2022-07-26T08:59:57.827Z,58.15
2022-07-26T09:00:21.239Z,58.15
2022-07-26T09:01:21.381Z,55.55
2022-07-26T09:02:55.600Z,55.6
2022-07-26T09:03:21.293Z,55.6
2022-07-26T09:04:31.510Z,55.61
2022-07-26T09:05:21.228Z,55.64
2022-07-26T09:06:21.230Z,55.72
2022-07-26T09:07:45.129Z,55.72
2022-07-26T09:08:21.235Z,55.56
2022-07-26T09:09:21.261Z,55.4
2022-07-26T09:10:21.251Z,55.4
2022-07-26T09:11:21.221Z,56.05
2022-07-26T09:12:21.229Z,56.05
2022-07-26T09:13:21.243Z,55.81
2022-07-26T09:14:21.253Z,56.39
2022-07-26T09:15:52.462Z,56.09
2022-07-26T09:16:25.548Z,56.09
2022-07-26T09:17:39.226Z,55.83
2022-07-26T09:18:21.226Z,56.22
2022-07-26T09:19:21.237Z,56.16
2022-07-26T09:20:24.277Z,55.38
2022-07-26T09:21:21.225Z,55.83
2022-07-26T09:22:21.230Z,55.83
2022-07-26T09:23:21.276Z,55.83
2022-07-26T09:24:21.233Z,55.83
2022-07-26T09:25:21.230Z,55.83
2022-07-26T09:26:21.237Z,55.83
2022-07-26T09:27:33.057Z,55.83
2022-07-26T09:28:21.243Z,55.47
2022-07-26T09:29:21.239Z,55.47
2022-07-26T09:30:21.227Z,55.47
2022-07-26T09:31:21.382Z,55.04
2022-07-26T09:32:21.222Z,54.98
2022-07-26T09:33:21.225Z,55.46
2022-07-26T09:34:21.263Z,55.46
2022-07-26T09:35:45.350Z,55.7
2022-07-26T09:36:21.233Z,55.45
2022-07-26T09:37:21.243Z,55.45
2022-07-26T09:38:21.232Z,55.45
2022-07-26T09:39:33.692Z,53.91
2022-07-26T09:40:21.227Z,53.5
2022-07-26T09:41:44.636Z,53.5
2022-07-26T09:42:27.518Z,54.17
2022-07-26T09:43:23.926Z,53.66
2022-07-26T09:44:21.257Z,54.05
2022-07-26T09:45:21.267Z,54.18
2022-07-26T09:46:21.301Z,54.53
2022-07-26T09:47:21.234Z,54.15
2022-07-26T09:48:21.238Z,54.48
2022-07-26T09:49:21.281Z,54.48
2022-07-26T09:50:21.402Z,53.77
2022-07-26T09:51:21.226Z,54.16
2022-07-26T09:52:21.222Z,54.83
2022-07-26T09:53:25.284Z,53.47
2022-07-26T09:54:21.248Z,53.47
2022-07-26T09:55:21.227Z,53.51
2022-07-26T09:56:21.332Z,53.51
2022-07-26T09:57:42.601Z,53.84
2022-07-26T09:58:21.247Z,54.19
2022-07-26T09:59:21.658Z,54.54
2022-07-26T10:00:21.256Z,53.51
2022-07-26T10:01:21.292Z,53.38
2022-07-26T10:02:21.234Z,53.38
2022-07-26T10:03:21.227Z,53.63
2022-07-26T10:04:21.255Z,53.76
2022-07-26T10:05:21.222Z,53.76
2022-07-26T10:06:32.459Z,53.31
2022-07-26T10:07:21.220Z,53.77
2022-07-26T10:09:02.791Z,54.26
2022-07-26T10:09:21.237Z,54.26
2022-07-26T10:10:21.236Z,54.26
2022-07-26T10:11:21.230Z,54.54
2022-07-26T10:12:21.239Z,54.87
2022-07-26T10:13:21.243Z,55.02
2022-07-26T10:14:21.385Z,55.02
2022-07-26T10:15:21.245Z,55.25
2022-07-26T10:16:35.500Z,54.85
2022-07-26T10:17:21.232Z,55.33
2022-07-26T10:18:21.235Z,54.46
2022-07-26T10:19:21.249Z,54.46
2022-07-26T10:20:24.430Z,54.62
2022-07-26T10:21:21.225Z,54.44
2022-07-26T10:22:21.245Z,54.47
2022-07-26T10:23:21.230Z,55.04
2022-07-26T10:24:21.296Z,54.59
2022-07-26T10:25:21.230Z,54.59
2022-07-26T10:26:21.234Z,54.46
2022-07-26T10:27:21.224Z,55.14
2022-07-26T10:28:23.121Z,55.14
2022-07-26T10:29:21.899Z,54.82
2022-07-26T10:30:21.225Z,54.82
2022-07-26T10:31:21.340Z,54.3
2022-07-26T10:32:21.225Z,54.66
2022-07-26T10:33:21.237Z,54.66
2022-07-26T10:34:25.012Z,54.17
2022-07-26T10:35:21.226Z,54.17
2022-07-26T10:36:40.083Z,54.9
2022-07-26T10:37:21.240Z,54.9
2022-07-26T10:38:21.225Z,55.6
2022-07-26T10:39:21.229Z,55.5
2022-07-26T10:40:21.305Z,55.03
2022-07-26T10:41:33.790Z,54.92
2022-07-26T10:42:21.227Z,54.31
2022-07-26T10:43:40.024Z,55.36
2022-07-26T10:44:21.245Z,54.52
2022-07-26T10:45:21.234Z,54.52
2022-07-26T10:46:21.304Z,54.52
2022-07-26T10:47:21.224Z,55.49
2022-07-26T10:48:31.862Z,55.49
2022-07-26T10:49:21.228Z,55.62
2022-07-26T10:50:29.243Z,55.62
2022-07-26T10:51:22.013Z,55.34
2022-07-26T10:52:21.240Z,54.89
2022-07-26T10:53:21.244Z,55.7
2022-07-26T10:54:30.386Z,55.7
2022-07-26T10:55:21.250Z,55.25
2022-07-26T10:56:21.235Z,55.25
2022-07-26T10:57:21.235Z,55.39
2022-07-26T10:58:21.233Z,55.39
2022-07-26T10:59:53.258Z,55.39
2022-07-26T11:00:21.239Z,56.25
2022-07-26T11:01:21.350Z,56.25
2022-07-26T11:02:21.303Z,54.51
2022-07-26T11:03:29.324Z,54.51
2022-07-26T11:04:21.269Z,54.24
2022-07-26T11:05:21.239Z,54.24
2022-07-26T11:06:21.223Z,51.62
2022-07-26T11:07:21.227Z,51.45
2022-07-26T11:08:21.222Z,51.84
2022-07-26T11:09:21.447Z,51.44
2022-07-26T11:10:33.417Z,51.44
2022-07-26T11:11:21.230Z,51.56
2022-07-26T11:12:21.243Z,51.56
2022-07-26T11:13:21.230Z,51.44
2022-07-26T11:14:21.228Z,52.34
2022-07-26T11:15:21.262Z,52.34
2022-07-26T11:16:21.385Z,52.51
2022-07-26T11:17:21.240Z,52.51
2022-07-26T11:19:00.757Z,52.51
2022-07-26T11:19:21.227Z,52.78
2022-07-26T11:20:22.028Z,53.01
2022-07-26T11:21:21.249Z,52.8
2022-07-26T11:22:21.231Z,52.74
2022-07-26T11:23:21.240Z,52.74
2022-07-26T11:24:37.642Z,53.26
2022-07-26T11:25:21.225Z,53.59
2022-07-26T11:26:21.242Z,53.59
2022-07-26T11:27:21.235Z,52.53
2022-07-26T11:28:21.241Z,52.53
2022-07-26T11:29:40.516Z,52.53
2022-07-26T11:30:21.136Z,52.89
2022-07-26T11:31:21.419Z,53.32
2022-07-26T11:32:21.925Z,53.85
2022-07-26T11:33:21.243Z,55.43
2022-07-26T11:34:21.249Z,55.43
2022-07-26T11:35:21.290Z,53.2
2022-07-26T11:36:21.233Z,52.87
2022-07-26T11:37:25.601Z,52.87
2022-07-26T11:38:21.219Z,52.28
2022-07-26T11:39:21.242Z,52.28
2022-07-26T11:40:21.224Z,52.28
2022-07-26T11:41:21.234Z,52.28
2022-07-26T11:42:21.220Z,52.28
2022-07-26T11:43:21.240Z,54.44
2022-07-26T11:44:21.222Z,54.44
2022-07-26T11:45:21.243Z,54.44
2022-07-26T11:46:21.328Z,53.43
2022-07-26T11:47:21.218Z,52.7
2022-07-26T11:48:21.240Z,52.7
2022-07-26T11:49:22.915Z,53.02
2022-07-26T11:50:23.163Z,53.36
2022-07-26T11:51:21.237Z,53.36
2022-07-26T11:52:25.475Z,51.25
2022-07-26T11:53:21.230Z,50.93
2022-07-26T11:54:21.227Z,50.93
2022-07-26T11:55:21.219Z,51.77
2022-07-26T11:56:21.241Z,51.77
2022-07-26T11:57:21.232Z,52.67
2022-07-26T11:58:21.226Z,52.67
2022-07-26T11:59:21.231Z,53.2
2022-07-26T12:00:21.229Z,53.2
2022-07-26T12:01:21.245Z,53.65
2022-07-26T12:02:21.238Z,53.79
2022-07-26T12:03:41.311Z,53.79
2022-07-26T12:04:21.344Z,53
2022-07-26T12:05:38.760Z,53
2022-07-26T12:06:21.242Z,52.45
2022-07-26T12:07:42.013Z,52.45
2022-07-26T12:08:21.553Z,52.66
2022-07-26T12:09:21.223Z,52.66
2022-07-26T12:10:21.221Z,53.25
2022-07-26T12:11:21.257Z,53.25
2022-07-26T12:13:13.499Z,53.25
2022-07-26T12:13:21.263Z,53.25
2022-07-26T12:14:21.613Z,51.76
2022-07-26T12:16:27.958Z,51.76
2022-07-26T12:16:28.157Z,51.76
2022-07-26T12:18:31.216Z,52.34
2022-07-26T12:18:31.389Z,51.79
2022-07-26T12:19:46.552Z,51.54
2022-07-26T12:20:21.217Z,51.41
2022-07-26T12:21:21.719Z,51.41
2022-07-26T12:22:21.210Z,51.41
2022-07-26T12:23:21.215Z,51.41
2022-07-26T12:24:21.209Z,51.41
2022-07-26T12:25:25.979Z,50.42
2022-07-26T12:26:21.254Z,49.87
2022-07-26T12:27:21.221Z,50.17
2022-07-26T12:28:21.228Z,49.91
2022-07-26T12:29:21.242Z,49.91
2022-07-26T12:30:21.240Z,50.91
2022-07-26T12:31:21.336Z,49.02
2022-07-26T12:32:21.242Z,50.12
2022-07-26T12:33:21.234Z,50.12
2022-07-26T12:34:21.222Z,49.93
2022-07-26T12:35:21.222Z,49.55
2022-07-26T12:36:27.841Z,49.23
2022-07-26T12:37:28.951Z,50.16
2022-07-26T12:38:21.231Z,50.55
2022-07-26T12:39:21.222Z,49.69
2022-07-26T12:40:28.683Z,50.45
2022-07-26T12:41:21.592Z,49.99
2022-07-26T12:42:33.242Z,49.99
2022-07-26T12:43:21.238Z,50.21
2022-07-26T12:44:21.240Z,50.21
2022-07-26T12:45:21.231Z,49.14
2022-07-26T12:46:21.264Z,49.35
2022-07-26T12:47:21.243Z,49.35
2022-07-26T12:48:21.238Z,49.54
2022-07-26T12:49:21.795Z,49.95
2022-07-26T12:50:33.445Z,49.65
2022-07-26T12:51:21.238Z,49.65
2022-07-26T12:52:21.228Z,48.67
2022-07-26T12:53:21.228Z,48.43
2022-07-26T12:54:22.636Z,47.9
2022-07-26T12:55:21.213Z,48.69